Canefield Airport

Fair
31oC (88oF)

Fair


Winds: East south easterly @ 06kts/ 11km/h

Humidity: 55%

Barometric Pressure: 1015 mb

Accumulated Rainfall for August: 96.1 mm

Updated: 16:00 local time (20:00 UTC)

Douglas-Charles Airport

Cloudy
29oC (84oF)

Cloudy


Winds: East south easterly @ 10kts / 19km/h

Humidity: 70%

Barometric Pressure: 1017 mb

Accumulated Rainfall for August: 148.7 mm

Updated: 16:00 local time (20:00 UTC)

Satellite Imagery

Satellite Imagery
Click image for larger view. (Source: National Hurricane Center).

Aviation Routine Report (METAR)

Douglas-Charles: METAR TDPD 202000Z 11010KT 9999 BKN022 29/23 Q1017=
Canefield: METAR TDCF 202000Z 12006KT 9999 FEW020 31/20 Q1015=